Skip Navigation Links
NOAA logo - Click to go to the NOAA homepage
NOAA's National Weather Service
Alaska Aviation Weather Unit
  NWS logo - Click to go to the NWS homepage
Left Navbar Graphic     21 AKDT = 05 GMT

   
NOAA is celebrating 200 years of science, service, and stewardship. Visit the NOAA 200th celebration Web site to learn more.
USA.gov is the U.S. Government's official Web portal to all Federal, state and local government Web resources and services.
Facebook
NWS on Facebook

Important Change Regarding the AAWU Web Presence

 

Over the last several months, the AAWU has been working to navigate its webpages to a nationally supported server. Security, as well as other needs, have necessitated the change.  In the process, we have made an effort to enhance the functionality of our website, as well as some of our products. As of June 27, 2017, aawu.arh.noaa.gov will be discontinued. The new AAWU web address is weather.gov/aawu. It is now live and will run in-parallel with the old site until it is discontinued. Please send any feedback or questions regarding the new webpages to nws.ar.aawu.webauthors@noaa.gov.  Thank you for your patience during this time of transition.
AAWU Home :: Display TAF Add Bookmark
SPECI PAVC 252331Z AUTO 09012KT 3SM -RA BR OVC003 09/09 A2976 RMK
 AO2 P0001=

SPECI PAVC 252352Z AUTO 08013G20KT 2 1/2SM -RA BR OVC003 09/09 A2976
 RMK AO2 VIS 2V3 P0002=

METAR PAVC 252356Z AUTO 09015G18KT 2 1/2SM -RA BR OVC003 09/09 A2976
 RMK AO2 VIS 1 3/4V3 SLP081 P0002 60025 T00890089 10089 20078
 56015=

SPECI PAVC 260032Z AUTO 07019G22KT 4SM -RA BR OVC003 09/09 A2973 RMK
 AO2 P0000=

SPECI PAVC 260130Z AUTO 08013KT 2SM -RA BR OVC003 09/09 A2973 RMK
 AO2 VIS 1 1/4V4 P0000=

SPECI PAVC 260137Z AUTO 07013KT 1 1/4SM -RA BR OVC003 09/09 A2973
 RMK AO2 VIS 3/4V3 P0000=

SPECI PAVC 260146Z AUTO 08011G18KT 3SM -RA BR OVC003 09/09 A2973 RMK
 AO2 P0000=

METAR PAVC 260156Z AUTO 08011KT 3SM -RA BR OVC003 09/08 A2973 RMK
 AO2 SLP074 P0000 T00890083=

SPECI PAVC 260203Z AUTO 08010KT 2 1/2SM -RA BR OVC003 09/08 A2973
 RMK AO2 VIS 2V4 P0000=

SPECI PAVC 260238Z AUTO 08011KT 5SM -RA BR OVC003 09/08 A2973 RMK
 AO2 P0001=

METAR PAVC 260256Z AUTO 07012KT 9SM -RA BKN003 OVC029 08/08 A2972
 RMK AO2 SLP069 P0001 60001 T00830083 56012=

SPECI PAVC 260344Z AUTO 07009KT 1 3/4SM -RA BR OVC003 08/08 A2971
 RMK AO2 VIS 1V4 P0000=

METAR PAVC 260356Z AUTO 07009KT 2SM -RA BR OVC003 08/08 A2972 RMK
 AO2 VIS 1V4 SLP068 P0000 T00830083=

SPECI PAVC 260408Z AUTO 07008KT 5SM BR OVC003 08/08 A2972 RMK AO2
 RAE04 P0000=

METAR PAVC 260456Z AUTO 08006KT 9SM SCT003 BKN017 OVC026 08/08 A2972
 RMK AO2 RAE39 SLP069 P0000 T00830083=


NOAA's National Weather Service
Alaska Aviation Weather Unit
6930 Sand Lake Road
Anchorage, AK 99502-1845
Disclaimer
Credits
Glossary
Privacy Policy
About Us
Career Opportunities
Contact AAWU Internet Services Site last modified: April, 17th 2012